createdAt,value
2019-01-29T00:02:16.764Z,11.53
2019-01-29T00:04:45.163Z,11.30
2019-01-29T00:07:13.571Z,10.90
2019-01-29T00:09:41.990Z,10.88
2019-01-29T00:12:10.400Z,10.70
2019-01-29T00:14:38.832Z,11.35
2019-01-29T00:17:07.235Z,11.48
2019-01-29T00:19:35.636Z,10.70
2019-01-29T00:22:04.688Z,10.75
2019-01-29T00:24:33.117Z,11.90
2019-01-29T00:27:01.551Z,11.00
2019-01-29T00:29:29.965Z,11.10
2019-01-29T00:31:58.405Z,10.90
2019-01-29T00:34:26.851Z,10.70
2019-01-29T00:36:55.250Z,11.40
2019-01-29T00:39:23.657Z,10.88
2019-01-29T00:41:52.123Z,11.12
2019-01-29T00:44:21.531Z,10.35
2019-01-29T00:46:49.927Z,10.68
2019-01-29T00:49:18.343Z,10.32
2019-01-29T00:51:46.766Z,10.07
2019-01-29T00:54:15.196Z,10.70
2019-01-29T00:56:43.592Z,11.15
2019-01-29T00:59:12.009Z,12.30
2019-01-29T01:01:40.407Z,11.28
2019-01-29T01:04:08.819Z,11.28
2019-01-29T01:06:37.216Z,10.03
2019-01-29T01:09:08.056Z,9.40
2019-01-29T01:11:36.472Z,9.93
2019-01-29T01:14:06.424Z,9.73
2019-01-29T01:16:35.112Z,9.43
2019-01-29T01:19:03.551Z,9.80
2019-01-29T01:21:31.942Z,9.98
2019-01-29T01:24:00.351Z,8.85
2019-01-29T01:26:28.758Z,9.45
2019-01-29T01:28:57.167Z,9.30
2019-01-29T01:31:25.559Z,9.45
2019-01-29T01:33:53.988Z,8.70
2019-01-29T01:36:22.375Z,8.90
2019-01-29T01:38:50.810Z,8.90
2019-01-29T01:41:19.227Z,8.80
2019-01-29T01:43:47.633Z,8.87
2019-01-29T01:46:16.029Z,8.13
2019-01-29T01:48:44.440Z,8.17
2019-01-29T01:51:12.837Z,8.85
2019-01-29T01:53:41.253Z,8.90
2019-01-29T01:56:09.728Z,8.13
2019-01-29T01:58:38.147Z,7.85
2019-01-29T02:01:06.634Z,7.00
2019-01-29T02:03:35.048Z,7.15
2019-01-29T02:06:03.531Z,7.20
2019-01-29T02:08:31.942Z,6.92
2019-01-29T02:11:00.349Z,8.40
2019-01-29T02:13:28.775Z,7.70
2019-01-29T02:15:57.204Z,7.90
2019-01-29T02:18:25.599Z,7.75
2019-01-29T02:20:54.008Z,8.20
2019-01-29T02:23:22.411Z,7.25
2019-01-29T02:25:50.820Z,7.65
2019-01-29T02:28:19.219Z,7.50
2019-01-29T02:30:47.629Z,7.65
2019-01-29T02:33:16.011Z,7.97
2019-01-29T02:35:44.420Z,7.30
2019-01-29T02:38:12.813Z,7.97
2019-01-29T02:40:41.230Z,7.08
2019-01-29T02:43:09.637Z,6.95
2019-01-29T02:45:38.364Z,6.03
2019-01-29T02:48:06.940Z,6.05
2019-01-29T02:50:35.351Z,6.22
2019-01-29T02:53:03.940Z,5.45
2019-01-29T02:55:32.350Z,6.08
2019-01-29T02:58:00.782Z,5.97
2019-01-29T03:00:29.256Z,6.47
2019-01-29T03:02:57.929Z,6.60
2019-01-29T03:05:26.331Z,6.40
2019-01-29T03:07:54.829Z,6.80
2019-01-29T03:10:25.372Z,6.37
2019-01-29T03:12:54.240Z,7.20
2019-01-29T03:15:31.059Z,6.55
2019-01-29T03:18:00.137Z,6.37
2019-01-29T03:20:28.714Z,6.00
2019-01-29T03:22:57.168Z,7.25
2019-01-29T03:25:25.650Z,6.58
2019-01-29T03:27:54.066Z,7.10
2019-01-29T03:30:22.967Z,7.45
2019-01-29T03:32:51.434Z,6.50
2019-01-29T03:35:20.099Z,6.47
2019-01-29T03:37:48.646Z,6.97
2019-01-29T03:40:25.468Z,6.90
2019-01-29T03:42:54.519Z,6.60
2019-01-29T03:45:23.270Z,6.67
2019-01-29T03:47:51.996Z,6.90
2019-01-29T03:50:22.229Z,6.53
2019-01-29T03:52:50.915Z,6.12
2019-01-29T03:55:19.574Z,6.50
2019-01-29T03:57:47.973Z,5.97
2019-01-29T04:00:19.095Z,6.30
2019-01-29T04:02:47.493Z,6.55
2019-01-29T04:05:16.159Z,6.40
2019-01-29T04:07:44.747Z,5.90
2019-01-29T04:10:15.826Z,7.50
2019-01-29T04:12:45.542Z,6.00
2019-01-29T04:15:16.862Z,6.17
2019-01-29T04:17:45.813Z,5.90
2019-01-29T04:20:16.808Z,5.30
2019-01-29T04:22:46.010Z,6.00
2019-01-29T04:25:14.648Z,6.10
2019-01-29T04:27:43.082Z,6.50
2019-01-29T04:30:16.748Z,6.20
2019-01-29T04:32:45.224Z,6.72
2019-01-29T04:35:13.628Z,6.78
2019-01-29T04:37:43.031Z,6.37
2019-01-29T04:40:19.140Z,7.30
2019-01-29T04:42:47.903Z,6.40
2019-01-29T04:45:17.535Z,6.37
2019-01-29T04:47:46.343Z,6.50
2019-01-29T04:50:17.348Z,6.40
2019-01-29T04:52:45.770Z,6.70
2019-01-29T04:55:16.292Z,5.70
2019-01-29T04:57:44.702Z,6.53
2019-01-29T05:00:39.626Z,5.62
2019-01-29T05:03:08.031Z,6.50
2019-01-29T05:05:36.496Z,6.03
2019-01-29T05:08:05.073Z,6.40
2019-01-29T05:10:33.503Z,6.40
2019-01-29T05:13:01.905Z,7.17
2019-01-29T05:15:30.305Z,5.95
2019-01-29T05:17:58.720Z,6.55
2019-01-29T05:20:27.128Z,6.28
2019-01-29T05:22:55.546Z,6.50
2019-01-29T05:25:23.953Z,5.70
2019-01-29T05:27:52.365Z,6.62
2019-01-29T05:30:22.999Z,6.40
2019-01-29T05:32:51.693Z,6.15
2019-01-29T05:35:20.152Z,6.40
2019-01-29T05:37:48.546Z,6.50
2019-01-29T05:40:19.499Z,6.33
2019-01-29T05:42:48.036Z,6.60
2019-01-29T05:45:18.328Z,5.95
2019-01-29T05:47:46.983Z,6.35
2019-01-29T05:50:15.931Z,6.00
2019-01-29T05:52:44.335Z,6.55
2019-01-29T05:55:14.979Z,6.12
2019-01-29T05:57:43.386Z,7.00
2019-01-29T06:00:18.262Z,6.60
2019-01-29T06:02:48.460Z,6.22
2019-01-29T06:05:17.159Z,7.08
2019-01-29T06:07:45.559Z,6.90
2019-01-29T06:10:16.128Z,7.10
2019-01-29T06:12:44.621Z,7.90
2019-01-29T06:15:15.738Z,7.67
2019-01-29T06:17:44.153Z,7.80
2019-01-29T06:20:15.744Z,8.18
2019-01-29T06:22:44.140Z,8.73
2019-01-29T06:25:12.570Z,8.40
2019-01-29T06:27:41.037Z,8.08
2019-01-29T06:30:12.551Z,8.93
2019-01-29T06:32:40.935Z,8.40
2019-01-29T06:35:12.368Z,8.10
2019-01-29T06:37:41.016Z,8.93
2019-01-29T06:40:15.488Z,8.85
2019-01-29T06:42:43.991Z,8.80
2019-01-29T06:45:14.543Z,9.40
2019-01-29T06:47:43.095Z,10.03
2019-01-29T06:50:17.112Z,9.53
2019-01-29T06:52:45.512Z,9.48
2019-01-29T06:55:16.365Z,9.43
2019-01-29T06:57:44.755Z,9.68
2019-01-29T07:00:16.579Z,9.75
2019-01-29T07:02:45.063Z,8.60
2019-01-29T07:05:13.467Z,8.70
2019-01-29T07:07:41.888Z,9.53
2019-01-29T07:10:16.343Z,9.35
2019-01-29T07:12:44.749Z,8.50
2019-01-29T07:15:19.783Z,9.00
2019-01-29T07:17:49.279Z,9.15
2019-01-29T07:20:17.716Z,8.40
2019-01-29T07:22:46.151Z,8.70
2019-01-29T07:25:14.944Z,8.68
2019-01-29T07:27:43.420Z,8.35
2019-01-29T07:30:14.572Z,8.40
2019-01-29T07:32:42.979Z,8.75
2019-01-29T07:35:11.460Z,9.08
2019-01-29T07:37:39.891Z,9.43
2019-01-29T07:40:10.227Z,9.63
2019-01-29T07:42:38.713Z,9.65
2019-01-29T07:45:10.370Z,9.40
2019-01-29T07:47:38.790Z,9.10
2019-01-29T07:50:09.636Z,8.50
2019-01-29T07:52:39.040Z,9.25
2019-01-29T07:55:09.897Z,9.95
2019-01-29T07:57:38.559Z,9.13
2019-01-29T08:00:12.589Z,8.60
2019-01-29T08:02:41.007Z,8.58
2019-01-29T08:05:11.439Z,8.45
2019-01-29T08:07:39.845Z,8.50
2019-01-29T08:10:11.583Z,8.60
2019-01-29T08:12:39.993Z,9.20
2019-01-29T08:15:11.487Z,8.45
2019-01-29T08:17:39.916Z,9.23
2019-01-29T08:20:13.212Z,7.92
2019-01-29T08:22:41.687Z,8.68
2019-01-29T08:25:10.831Z,8.20
2019-01-29T08:27:39.389Z,8.27
2019-01-29T08:30:11.211Z,8.53
2019-01-29T08:32:39.683Z,8.28
2019-01-29T08:35:11.350Z,8.58
2019-01-29T08:37:39.740Z,9.00
2019-01-29T08:40:10.828Z,8.88
2019-01-29T08:42:39.248Z,9.90
2019-01-29T08:45:10.480Z,9.48
2019-01-29T08:47:38.887Z,9.15
2019-01-29T08:50:10.387Z,10.20
2019-01-29T08:52:38.783Z,9.70
2019-01-29T08:55:10.768Z,10.53
2019-01-29T08:57:37.416Z,10.90
2019-01-29T09:00:12.358Z,10.70
2019-01-29T09:02:41.005Z,10.60
2019-01-29T09:05:10.262Z,11.37
2019-01-29T09:07:38.666Z,11.12
2019-01-29T09:10:12.969Z,10.23
2019-01-29T09:12:41.380Z,10.65
2019-01-29T09:15:12.803Z,10.80
2019-01-29T09:17:41.219Z,10.53
2019-01-29T09:20:12.371Z,10.20
2019-01-29T09:22:41.405Z,9.40
2019-01-29T09:25:19.914Z,10.58
2019-01-29T09:27:42.264Z,9.80
2019-01-29T09:30:18.623Z,9.78
2019-01-29T09:32:47.078Z,10.32
2019-01-29T09:35:15.592Z,9.70
2019-01-29T09:37:44.012Z,9.90
2019-01-29T09:40:17.415Z,10.13
2019-01-29T09:42:46.081Z,10.00
2019-01-29T09:45:17.571Z,10.50
2019-01-29T09:47:46.053Z,10.63
2019-01-29T09:50:18.495Z,10.20
2019-01-29T09:52:46.893Z,9.80
2019-01-29T09:55:17.795Z,10.60
2019-01-29T09:57:46.201Z,9.95
2019-01-29T10:00:17.907Z,11.55
2019-01-29T10:02:46.344Z,11.68
2019-01-29T10:05:14.827Z,10.70
2019-01-29T10:07:43.250Z,11.28
2019-01-29T10:10:13.084Z,10.82
2019-01-29T10:12:42.425Z,9.90
2019-01-29T10:15:16.719Z,9.80
2019-01-29T10:17:45.304Z,9.70
2019-01-29T10:20:14.224Z,10.40
2019-01-29T10:22:43.104Z,9.90
2019-01-29T10:25:14.479Z,10.28
2019-01-29T10:27:42.917Z,10.08
2019-01-29T10:30:14.016Z,8.70
2019-01-29T10:32:42.510Z,8.70
2019-01-29T10:35:13.746Z,8.93
2019-01-29T10:37:42.482Z,8.90
2019-01-29T10:40:16.741Z,9.43
2019-01-29T10:42:45.788Z,9.30
2019-01-29T10:45:16.696Z,9.43
2019-01-29T10:47:45.115Z,8.60
2019-01-29T10:50:19.337Z,9.10
2019-01-29T10:52:48.443Z,8.60
2019-01-29T10:55:17.930Z,8.50
2019-01-29T10:57:46.586Z,7.87
2019-01-29T11:00:17.890Z,8.00
2019-01-29T11:02:46.345Z,6.97
2019-01-29T11:05:17.559Z,7.30
2019-01-29T11:07:46.139Z,7.37
2019-01-29T11:10:16.942Z,7.05
2019-01-29T11:12:45.348Z,7.15
2019-01-29T11:15:16.846Z,7.97
2019-01-29T11:17:45.249Z,7.70
2019-01-29T11:20:16.981Z,7.50
2019-01-29T11:22:45.464Z,8.60
2019-01-29T11:25:16.877Z,7.23
2019-01-29T11:27:45.452Z,7.70
2019-01-29T11:30:17.540Z,8.97
2019-01-29T11:32:45.968Z,9.58
2019-01-29T11:35:14.632Z,9.20
2019-01-29T11:37:43.187Z,8.98
2019-01-29T11:40:15.022Z,10.50
2019-01-29T11:42:43.444Z,10.10
2019-01-29T11:45:14.927Z,10.28
2019-01-29T11:47:43.355Z,10.30
2019-01-29T11:50:12.392Z,9.83
2019-01-29T11:52:40.803Z,9.90
2019-01-29T11:55:11.066Z,9.20
2019-01-29T11:57:39.475Z,9.73
2019-01-29T12:00:21.152Z,9.00
2019-01-29T12:02:49.547Z,8.70
2019-01-29T12:05:18.037Z,9.58
2019-01-29T12:07:46.472Z,7.95
2019-01-29T12:10:15.104Z,9.00
2019-01-29T12:12:43.587Z,9.18
2019-01-29T12:15:17.771Z,8.08
2019-01-29T12:17:46.178Z,7.75
2019-01-29T12:20:16.910Z,8.65
2019-01-29T12:22:45.392Z,9.80
2019-01-29T12:25:14.129Z,10.50
2019-01-29T12:27:42.544Z,10.07
2019-01-29T12:30:22.768Z,9.97
2019-01-29T12:32:51.840Z,10.30
2019-01-29T12:35:20.338Z,12.00
2019-01-29T12:37:48.747Z,12.00
2019-01-29T12:40:17.299Z,20.45
2019-01-29T12:42:45.775Z,13.72
2019-01-29T12:45:18.871Z,13.28
2019-01-29T12:47:47.619Z,14.55
2019-01-29T12:50:27.467Z,14.65
2019-01-29T12:53:04.050Z,15.20
2019-01-29T12:55:32.515Z,17.02
2019-01-29T12:58:00.918Z,16.80
2019-01-29T13:00:37.223Z,16.60
2019-01-29T13:03:06.059Z,17.20
2019-01-29T13:05:34.538Z,17.67
2019-01-29T13:08:03.083Z,17.50
2019-01-29T13:10:31.562Z,17.23
2019-01-29T13:12:59.989Z,16.27
2019-01-29T13:15:33.295Z,16.57
2019-01-29T13:18:08.991Z,16.80
2019-01-29T13:20:37.431Z,16.10
2019-01-29T13:23:05.830Z,17.02
2019-01-29T13:25:34.776Z,16.20
2019-01-29T13:28:03.196Z,17.02
2019-01-29T13:30:36.398Z,16.48
2019-01-29T13:33:08.108Z,15.50
2019-01-29T13:35:37.670Z,16.07
2019-01-29T13:38:07.832Z,15.30
2019-01-29T13:40:36.419Z,16.35
2019-01-29T13:43:06.971Z,16.45
2019-01-29T13:45:35.659Z,16.37
2019-01-29T13:48:04.904Z,16.77
2019-01-29T13:50:36.453Z,15.85
2019-01-29T13:53:05.721Z,16.82
2019-01-29T13:55:34.136Z,15.60
2019-01-29T13:58:02.557Z,15.60
2019-01-29T14:00:33.187Z,16.30
2019-01-29T14:03:02.533Z,16.85
2019-01-29T14:05:30.960Z,14.90
2019-01-29T14:07:59.383Z,15.80
2019-01-29T14:10:27.885Z,14.95
2019-01-29T14:12:56.271Z,14.60
2019-01-29T14:15:27.951Z,16.00
2019-01-29T14:17:56.365Z,15.13
2019-01-29T14:20:24.783Z,15.30
2019-01-29T14:22:53.195Z,15.60
2019-01-29T14:25:21.603Z,15.68
2019-01-29T14:27:50.076Z,17.00
2019-01-29T14:30:31.396Z,17.50
2019-01-29T14:33:00.042Z,16.50
2019-01-29T14:35:28.828Z,17.00
2019-01-29T14:38:12.043Z,14.53
2019-01-29T14:40:40.530Z,14.40
2019-01-29T14:43:12.380Z,14.33
2019-01-29T14:45:42.114Z,15.18
2019-01-29T14:48:10.533Z,13.90
2019-01-29T14:50:38.949Z,13.90
2019-01-29T14:53:07.517Z,15.05
2019-01-29T14:55:35.925Z,14.20
2019-01-29T14:58:04.988Z,14.47
2019-01-29T15:00:37.496Z,14.00
2019-01-29T15:03:05.868Z,12.60
2019-01-29T15:05:34.283Z,13.17
2019-01-29T15:08:02.692Z,13.08
2019-01-29T15:10:32.117Z,12.03
2019-01-29T15:13:00.680Z,12.30
2019-01-29T15:15:34.131Z,12.13
2019-01-29T15:18:16.375Z,11.57
2019-01-29T15:20:44.875Z,11.40
2019-01-29T15:23:13.299Z,12.55
2019-01-29T15:25:41.731Z,11.93
2019-01-29T15:28:10.149Z,12.50
2019-01-29T15:30:38.662Z,12.85
2019-01-29T15:33:07.077Z,14.07
2019-01-29T15:35:35.503Z,13.05
2019-01-29T15:38:04.260Z,13.70
2019-01-29T15:40:32.660Z,13.53
2019-01-29T15:43:01.104Z,13.25
2019-01-29T15:45:29.966Z,16.05
2019-01-29T15:47:58.451Z,16.37
2019-01-29T15:50:31.385Z,15.03
2019-01-29T15:53:00.068Z,15.30
2019-01-29T15:55:28.699Z,16.25
2019-01-29T15:57:57.237Z,15.90
2019-01-29T16:00:36.548Z,17.90
2019-01-29T16:03:05.099Z,17.37
2019-01-29T16:05:35.935Z,17.90
2019-01-29T16:08:09.187Z,18.82
2019-01-29T16:10:41.808Z,19.45
2019-01-29T16:13:10.209Z,20.20
2019-01-29T16:15:39.376Z,20.70
2019-01-29T16:18:07.928Z,22.40
2019-01-29T16:20:36.327Z,23.80
2019-01-29T16:23:05.286Z,22.40
2019-01-29T16:25:35.327Z,21.33
2019-01-29T16:28:03.820Z,20.40
2019-01-29T16:30:34.878Z,20.02
2019-01-29T16:33:03.371Z,21.85
2019-01-29T16:35:36.991Z,22.10
2019-01-29T16:38:06.843Z,23.52
2019-01-29T16:40:37.493Z,23.90
2019-01-29T16:43:05.936Z,22.22
2019-01-29T16:45:36.468Z,23.70
2019-01-29T16:48:07.238Z,23.60
2019-01-29T16:50:35.698Z,22.55
2019-01-29T16:53:05.069Z,24.87
2019-01-29T16:55:33.480Z,26.55
2019-01-29T16:58:01.928Z,24.98
2019-01-29T17:00:35.140Z,26.30
2019-01-29T17:03:04.226Z,24.12
2019-01-29T17:05:32.653Z,27.00
2019-01-29T17:08:01.440Z,26.60
2019-01-29T17:10:32.573Z,27.30
2019-01-29T17:13:00.987Z,26.02
2019-01-29T17:15:31.548Z,25.68
2019-01-29T17:18:01.032Z,24.40
2019-01-29T17:20:46.591Z,24.53
2019-01-29T17:23:15.543Z,26.95
2019-01-29T17:25:43.963Z,30.30
2019-01-29T17:28:12.383Z,29.42
2019-01-29T17:30:43.887Z,27.17
2019-01-29T17:33:15.090Z,25.88
2019-01-29T17:35:43.495Z,25.15
2019-01-29T17:38:12.313Z,31.33
2019-01-29T17:40:40.772Z,29.98
2019-01-29T17:43:09.253Z,29.52
2019-01-29T17:45:42.848Z,28.42
2019-01-29T17:48:11.284Z,27.80
2019-01-29T17:50:42.913Z,26.50
2019-01-29T17:53:11.688Z,27.15
2019-01-29T17:55:41.149Z,26.50
2019-01-29T17:58:11.592Z,26.00
2019-01-29T18:00:42.028Z,25.97
2019-01-29T18:03:10.488Z,28.70
2019-01-29T18:05:38.976Z,31.33
2019-01-29T18:08:07.392Z,29.25
2019-01-29T18:10:35.800Z,26.30
2019-01-29T18:13:04.340Z,25.30
2019-01-29T18:15:32.843Z,25.50
2019-01-29T18:18:01.236Z,23.80
2019-01-29T18:20:30.166Z,25.62
2019-01-29T18:22:59.222Z,26.00
2019-01-29T18:25:27.726Z,28.80
2019-01-29T18:28:01.410Z,27.90
2019-01-29T18:30:32.287Z,29.02
2019-01-29T18:33:00.709Z,27.15
2019-01-29T18:35:29.374Z,27.05
2019-01-29T18:37:57.774Z,28.25
2019-01-29T18:40:34.972Z,36.68
2019-01-29T18:43:03.374Z,31.15
2019-01-29T18:45:31.797Z,27.45
2019-01-29T18:48:00.208Z,27.48
2019-01-29T18:50:28.640Z,31.90
2019-01-29T18:52:57.036Z,32.88
2019-01-29T18:55:25.535Z,33.10
2019-01-29T18:57:53.952Z,29.50
2019-01-29T19:00:25.002Z,32.55
2019-01-29T19:02:53.407Z,28.55
2019-01-29T19:05:23.974Z,31.30
2019-01-29T19:07:52.451Z,26.57
2019-01-29T19:10:22.194Z,25.48
2019-01-29T19:12:50.603Z,22.45
2019-01-29T19:15:26.724Z,24.70
2019-01-29T19:17:55.140Z,23.80
2019-01-29T19:20:25.611Z,25.30
2019-01-29T19:22:54.031Z,25.60
2019-01-29T19:25:22.517Z,26.50
2019-01-29T19:27:50.990Z,26.27
2019-01-29T19:30:31.130Z,27.25
2019-01-29T19:32:59.790Z,27.77
2019-01-29T19:35:29.152Z,28.57
2019-01-29T19:37:57.633Z,27.77
2019-01-29T19:40:26.181Z,27.00
2019-01-29T19:42:54.580Z,26.25
2019-01-29T19:45:25.592Z,26.55
2019-01-29T19:47:54.627Z,26.33
2019-01-29T19:50:25.485Z,28.02
2019-01-29T19:52:54.038Z,27.90
2019-01-29T19:55:23.311Z,28.23
2019-01-29T19:57:51.818Z,28.98
2019-01-29T20:00:31.672Z,27.87
2019-01-29T20:03:00.068Z,27.10
2019-01-29T20:05:28.628Z,28.20
2019-01-29T20:07:57.391Z,27.97
2019-01-29T20:10:26.167Z,27.60
2019-01-29T20:12:54.579Z,29.30
2019-01-29T20:15:25.223Z,30.10
2019-01-29T20:17:55.675Z,31.23
2019-01-29T20:20:32.563Z,32.77
2019-01-29T20:23:07.630Z,33.75
2019-01-29T20:25:31.099Z,33.70
2019-01-29T20:27:59.551Z,32.40
2019-01-29T20:30:30.888Z,30.25
2019-01-29T20:32:59.323Z,30.40
2019-01-29T20:35:27.797Z,31.23
2019-01-29T20:37:56.203Z,31.75
2019-01-29T20:40:25.073Z,30.45
2019-01-29T20:42:53.556Z,28.60
2019-01-29T20:45:22.632Z,28.95
2019-01-29T20:47:52.680Z,33.70
2019-01-29T20:50:24.388Z,31.55
2019-01-29T20:52:52.867Z,31.50
2019-01-29T20:55:21.295Z,28.98
2019-01-29T20:57:49.712Z,30.75
2019-01-29T21:00:20.548Z,29.75
2019-01-29T21:02:48.991Z,31.17
2019-01-29T21:05:17.391Z,31.07
2019-01-29T21:07:45.826Z,30.62
2019-01-29T21:10:16.784Z,30.57
2019-01-29T21:12:45.184Z,28.25
2019-01-29T21:15:16.372Z,30.43
2019-01-29T21:17:44.854Z,29.40
2019-01-29T21:20:15.395Z,30.05
2019-01-29T21:22:43.947Z,30.85
2019-01-29T21:25:13.020Z,29.60
2019-01-29T21:27:41.735Z,28.77
2019-01-29T21:30:31.272Z,29.77
2019-01-29T21:32:59.709Z,29.77
2019-01-29T21:35:28.201Z,28.35
2019-01-29T21:37:56.695Z,28.62
2019-01-29T21:40:25.455Z,28.32
2019-01-29T21:42:53.895Z,29.32
2019-01-29T21:45:23.857Z,28.70
2019-01-29T21:47:54.518Z,29.90
2019-01-29T21:50:27.979Z,29.20
2019-01-29T21:52:56.394Z,28.92
2019-01-29T21:55:25.038Z,29.05
2019-01-29T21:57:53.430Z,29.97
2019-01-29T22:00:33.651Z,29.57
2019-01-29T22:03:02.137Z,27.87
2019-01-29T22:05:30.555Z,29.20
2019-01-29T22:07:59.006Z,29.50
2019-01-29T22:10:27.475Z,27.55
2019-01-29T22:12:55.941Z,27.30
2019-01-29T22:15:25.420Z,29.70
2019-01-29T22:17:53.820Z,28.90
2019-01-29T22:20:23.800Z,29.30
2019-01-29T22:22:52.192Z,29.23
2019-01-29T22:25:23.113Z,29.00
2019-01-29T22:27:51.593Z,28.00
2019-01-29T22:30:31.558Z,28.02
2019-01-29T22:33:00.050Z,29.33
2019-01-29T22:35:28.527Z,29.20
2019-01-29T22:37:56.929Z,27.93
2019-01-29T22:40:27.304Z,28.60
2019-01-29T22:42:56.051Z,28.20
2019-01-29T22:45:32.244Z,30.00
2019-01-29T22:48:00.652Z,29.45
2019-01-29T22:50:31.365Z,29.00
2019-01-29T22:53:00.019Z,28.60
2019-01-29T22:55:28.496Z,28.38
2019-01-29T22:57:56.922Z,28.50
2019-01-29T23:00:56.769Z,27.37
2019-01-29T23:03:31.466Z,27.75
2019-01-29T23:06:08.836Z,29.00
2019-01-29T23:08:37.236Z,30.45
2019-01-29T23:11:05.749Z,27.45
2019-01-29T23:13:34.168Z,29.45
2019-01-29T23:16:02.604Z,30.45
2019-01-29T23:18:31.012Z,29.03
2019-01-29T23:20:59.443Z,29.47
2019-01-29T23:23:27.955Z,29.53
2019-01-29T23:25:56.370Z,30.97
2019-01-29T23:28:24.770Z,31.00
2019-01-29T23:30:53.199Z,31.55
2019-01-29T23:33:21.597Z,28.30
2019-01-29T23:35:50.034Z,30.52
2019-01-29T23:38:18.441Z,31.02
2019-01-29T23:40:46.897Z,30.30
2019-01-29T23:43:15.296Z,30.97
2019-01-29T23:45:43.697Z,30.20
2019-01-29T23:48:12.110Z,31.87
2019-01-29T23:50:40.592Z,31.80
2019-01-29T23:53:09.000Z,32.00
2019-01-29T23:55:37.780Z,31.65
2019-01-29T23:58:06.372Z,31.37
